createdAt,value
2018-06-14T00:01:56.038Z,77.60
2018-06-14T00:04:25.326Z,77.50
2018-06-14T00:06:53.746Z,77.70
2018-06-14T00:09:22.214Z,77.70
2018-06-14T00:11:50.650Z,77.80
2018-06-14T00:14:19.063Z,77.80
2018-06-14T00:16:47.542Z,78.00
2018-06-14T00:19:16.752Z,78.10
2018-06-14T00:21:45.167Z,78.30
2018-06-14T00:24:13.605Z,78.50
2018-06-14T00:26:42.036Z,78.80
2018-06-14T00:29:10.593Z,78.90
2018-06-14T00:31:39.081Z,79.10
2018-06-14T00:34:07.498Z,79.10
2018-06-14T00:36:35.932Z,79.20
2018-06-14T00:39:05.940Z,79.50
2018-06-14T00:41:34.487Z,79.50
2018-06-14T00:44:03.279Z,79.80
2018-06-14T00:46:31.834Z,79.80
2018-06-14T00:51:28.359Z,80.30
2018-06-14T00:53:56.858Z,80.70
2018-06-14T00:56:25.378Z,80.90
2018-06-14T00:58:53.777Z,81.10
2018-06-14T01:01:22.278Z,81.30
2018-06-14T01:03:50.707Z,81.20
2018-06-14T01:06:19.286Z,81.00
2018-06-14T01:08:47.746Z,80.70
2018-06-14T01:11:16.183Z,80.40
2018-06-14T01:13:44.630Z,80.00
2018-06-14T01:16:13.098Z,79.70
2018-06-14T01:18:41.526Z,79.80
2018-06-14T01:21:09.970Z,79.90
2018-06-14T01:23:38.597Z,80.00
2018-06-14T01:26:07.042Z,79.80
2018-06-14T01:28:35.457Z,79.60
2018-06-14T01:31:04.178Z,79.50
2018-06-14T01:33:32.589Z,79.30
2018-06-14T01:36:01.014Z,79.20
2018-06-14T01:38:29.450Z,79.50
2018-06-14T01:40:57.878Z,78.60
2018-06-14T01:43:26.329Z,77.70
2018-06-14T01:45:54.912Z,77.20
2018-06-14T01:48:23.569Z,76.60
2018-06-14T01:50:52.111Z,76.00
2018-06-14T01:53:20.713Z,75.60
2018-06-14T01:55:49.143Z,75.20
2018-06-14T01:58:17.682Z,75.00
2018-06-14T02:00:46.204Z,74.80
2018-06-14T02:03:14.721Z,74.70
2018-06-14T02:05:43.146Z,74.60
2018-06-14T02:08:11.622Z,74.50
2018-06-14T02:10:40.075Z,74.10
2018-06-14T02:13:08.514Z,74.00
2018-06-14T02:15:36.979Z,73.80
2018-06-14T02:18:05.474Z,73.40
2018-06-14T02:20:34.050Z,72.80
2018-06-14T02:23:02.742Z,72.50
2018-06-14T02:25:31.268Z,72.00
2018-06-14T02:27:59.841Z,71.80
2018-06-14T02:30:28.454Z,71.40
2018-06-14T02:32:56.902Z,71.00
2018-06-14T02:35:25.454Z,70.60
2018-06-14T02:37:53.926Z,70.40
2018-06-14T02:40:22.618Z,70.10
2018-06-14T02:42:51.050Z,69.90
2018-06-14T02:45:19.503Z,69.80
2018-06-14T02:47:47.922Z,69.50
2018-06-14T02:50:16.434Z,69.50
2018-06-14T02:52:44.897Z,69.70
2018-06-14T02:55:13.334Z,70.00
2018-06-14T02:57:41.850Z,70.40
2018-06-14T03:00:10.360Z,70.20
2018-06-14T03:02:38.877Z,70.40
2018-06-14T03:05:07.467Z,70.40
2018-06-14T03:07:36.457Z,70.60
2018-06-14T03:10:06.040Z,71.00
2018-06-14T03:12:34.454Z,71.10
2018-06-14T03:15:02.994Z,71.20
2018-06-14T03:17:31.528Z,71.40
2018-06-14T03:20:00.062Z,71.50
2018-06-14T03:22:28.554Z,71.60
2018-06-14T03:24:57.677Z,71.80
2018-06-14T03:27:26.082Z,72.00
2018-06-14T03:29:54.702Z,72.30
2018-06-14T03:32:23.433Z,72.50
2018-06-14T03:34:51.969Z,72.60
2018-06-14T03:37:20.453Z,72.80
2018-06-14T03:39:48.876Z,73.00
2018-06-14T03:42:17.452Z,73.00
2018-06-14T03:44:45.942Z,73.20
2018-06-14T03:47:14.378Z,73.50
2018-06-14T03:52:12.418Z,73.60
2018-06-14T03:54:40.826Z,73.30
2018-06-14T03:57:09.637Z,73.20
2018-06-14T03:59:38.098Z,73.00
2018-06-14T04:02:06.873Z,72.50
2018-06-14T04:04:35.293Z,72.30
2018-06-14T04:07:03.769Z,72.10
2018-06-14T04:09:32.197Z,72.00
2018-06-14T04:12:00.637Z,71.60
2018-06-14T04:14:29.126Z,70.90
2018-06-14T04:16:57.578Z,70.00
2018-06-14T04:19:26.114Z,69.30
2018-06-14T04:21:54.687Z,68.50
2018-06-14T04:24:23.165Z,67.50
2018-06-14T04:26:51.804Z,66.10
2018-06-14T04:29:20.365Z,65.10
2018-06-14T04:31:48.770Z,64.20
2018-06-14T04:34:17.182Z,64.10
2018-06-14T04:36:45.642Z,62.90
2018-06-14T04:39:14.072Z,62.10
2018-06-14T04:41:42.672Z,60.80
2018-06-14T04:44:11.171Z,60.10
2018-06-14T04:46:39.597Z,59.60
2018-06-14T04:49:08.050Z,59.10
2018-06-14T04:51:43.918Z,58.40
2018-06-14T04:54:12.630Z,57.80
2018-06-14T04:56:42.223Z,57.70
2018-06-14T04:59:11.149Z,57.50
2018-06-14T05:01:39.621Z,57.10
2018-06-14T05:06:36.205Z,56.30
2018-06-14T05:09:08.186Z,56.20
2018-06-14T05:11:36.630Z,56.30
2018-06-14T05:14:05.386Z,56.50
2018-06-14T05:16:33.842Z,56.30
2018-06-14T05:19:02.286Z,56.10
2018-06-14T05:21:30.768Z,56.60
2018-06-14T05:23:59.199Z,56.50
2018-06-14T05:26:27.652Z,56.60
2018-06-14T05:28:56.235Z,56.60
2018-06-14T05:31:24.687Z,57.10
2018-06-14T05:33:53.212Z,57.20
2018-06-14T05:36:21.704Z,57.40
2018-06-14T05:38:50.137Z,57.40
2018-06-14T05:41:18.594Z,57.60
2018-06-14T05:43:47.098Z,57.60
2018-06-14T05:46:15.530Z,57.50
2018-06-14T05:48:43.951Z,57.60
2018-06-14T05:51:12.526Z,58.10
2018-06-14T05:53:40.969Z,58.60
2018-06-14T05:56:09.444Z,58.50
2018-06-14T05:58:38.790Z,58.60
2018-06-14T06:01:07.383Z,58.60
2018-06-14T06:03:36.091Z,58.50
2018-06-14T06:06:04.612Z,58.50
2018-06-14T06:08:33.054Z,58.00
2018-06-14T06:11:01.510Z,57.80
2018-06-14T06:13:29.962Z,57.80
2018-06-14T06:15:58.414Z,57.90
2018-06-14T06:18:26.858Z,57.40
2018-06-14T06:20:55.326Z,56.60
2018-06-14T06:23:23.890Z,56.40
2018-06-14T06:25:52.319Z,55.80
2018-06-14T06:28:20.910Z,55.40
2018-06-14T06:30:49.375Z,55.30
2018-06-14T06:33:17.895Z,54.40
2018-06-14T06:35:46.345Z,54.20
2018-06-14T06:38:14.890Z,54.30
2018-06-14T06:40:43.426Z,53.80
2018-06-14T06:43:12.034Z,53.80
2018-06-14T06:45:40.710Z,53.70
2018-06-14T06:48:09.278Z,53.40
2018-06-14T06:50:37.986Z,53.80
2018-06-14T06:53:06.713Z,53.30
2018-06-14T06:55:35.158Z,53.50
2018-06-14T06:58:03.641Z,53.60
2018-06-14T07:00:32.074Z,53.50
2018-06-14T07:03:00.514Z,53.60
2018-06-14T07:05:29.074Z,53.60
2018-06-14T07:07:57.499Z,53.80
2018-06-14T07:10:26.004Z,53.30
2018-06-14T07:12:54.575Z,53.40
2018-06-14T07:15:23.164Z,53.50
2018-06-14T07:17:51.734Z,53.10
2018-06-14T07:20:20.216Z,53.60
2018-06-14T07:22:48.864Z,52.60
2018-06-14T07:25:17.438Z,52.40
2018-06-14T07:27:46.066Z,52.30
2018-06-14T07:30:14.667Z,52.30
2018-06-14T07:32:43.242Z,52.30
2018-06-14T07:35:11.835Z,52.20
2018-06-14T07:40:08.523Z,51.60
2018-06-14T07:42:37.002Z,51.90
2018-06-14T07:45:05.970Z,51.70
2018-06-14T07:47:34.402Z,51.80
2018-06-14T07:50:02.897Z,52.10
2018-06-14T07:52:31.304Z,52.60
2018-06-14T07:54:59.849Z,52.80
2018-06-14T07:57:28.342Z,51.90
2018-06-14T07:59:56.791Z,50.70
2018-06-14T08:02:25.414Z,50.90
2018-06-14T08:04:53.983Z,50.70
2018-06-14T08:07:22.393Z,51.30
2018-06-14T08:09:50.817Z,52.20
2018-06-14T08:12:19.347Z,52.20
2018-06-14T08:14:47.750Z,52.30
2018-06-14T08:19:44.477Z,52.90
2018-06-14T08:22:12.933Z,53.20
2018-06-14T08:24:41.370Z,53.70
2018-06-14T08:27:10.010Z,53.70
2018-06-14T08:29:38.443Z,53.50
2018-06-14T08:32:06.885Z,52.60
2018-06-14T08:34:35.447Z,53.40
2018-06-14T08:37:04.142Z,53.00
2018-06-14T08:39:32.660Z,53.10
2018-06-14T08:42:01.142Z,53.10
2018-06-14T08:44:29.698Z,53.30
2018-06-14T08:46:58.150Z,52.90
2018-06-14T08:49:26.623Z,52.90
2018-06-14T08:54:23.312Z,53.30
2018-06-14T08:56:51.770Z,53.30
2018-06-14T08:59:20.241Z,54.00
2018-06-14T09:01:48.854Z,54.40
2018-06-14T09:04:17.315Z,54.00
2018-06-14T09:06:45.870Z,53.50
2018-06-14T09:09:15.214Z,53.30
2018-06-14T09:13:13.027Z,52.80
2018-06-14T09:15:41.463Z,52.00
2018-06-14T09:18:09.910Z,52.20
2018-06-14T09:20:38.519Z,51.40
2018-06-14T09:23:06.950Z,51.40
2018-06-14T09:25:35.388Z,51.40
2018-06-14T09:28:03.872Z,50.90
2018-06-14T09:30:32.308Z,51.10
2018-06-14T09:33:00.734Z,52.10
2018-06-14T09:35:29.962Z,51.60
2018-06-14T09:37:58.503Z,52.20
2018-06-14T09:40:27.170Z,51.50
2018-06-14T09:42:55.792Z,51.70
2018-06-14T09:45:24.528Z,51.40
2018-06-14T09:47:53.006Z,51.40
2018-06-14T09:50:21.757Z,51.50
2018-06-14T09:52:50.174Z,51.40
2018-06-14T09:55:18.718Z,51.20
2018-06-14T09:57:47.305Z,50.90
2018-06-14T10:00:15.770Z,50.70
2018-06-14T10:02:44.201Z,50.90
2018-06-14T10:05:12.727Z,51.30
2018-06-14T10:07:41.338Z,51.30
2018-06-14T10:10:10.070Z,51.00
2018-06-14T10:12:39.368Z,51.10
2018-06-14T10:15:08.000Z,51.20
2018-06-14T10:17:36.538Z,51.30
2018-06-14T10:20:05.277Z,51.10
2018-06-14T10:22:33.682Z,51.30
2018-06-14T10:25:02.216Z,51.70
2018-06-14T10:27:30.747Z,52.10
2018-06-14T10:29:59.285Z,51.60
2018-06-14T10:32:27.829Z,50.90
2018-06-14T10:34:56.602Z,50.70
2018-06-14T10:39:53.586Z,50.40
2018-06-14T10:42:21.994Z,50.90
2018-06-14T10:44:50.420Z,50.90
2018-06-14T10:47:18.899Z,49.80
2018-06-14T10:49:47.306Z,49.60
2018-06-14T10:52:16.278Z,49.60
2018-06-14T10:54:44.776Z,49.70
2018-06-14T10:57:13.381Z,49.70
2018-06-14T10:59:41.957Z,50.40
2018-06-14T11:04:38.499Z,50.80
2018-06-14T11:07:07.045Z,50.60
2018-06-14T11:09:35.630Z,50.20
2018-06-14T11:12:04.202Z,50.50
2018-06-14T11:14:32.731Z,51.20
2018-06-14T11:17:01.249Z,50.90
2018-06-14T11:19:29.709Z,50.90
2018-06-14T11:21:58.358Z,49.80
2018-06-14T11:24:26.861Z,49.20
2018-06-14T11:26:55.293Z,49.20
2018-06-14T11:29:23.842Z,48.70
2018-06-14T11:31:52.438Z,48.60
2018-06-14T11:34:20.990Z,48.50
2018-06-14T11:36:49.432Z,49.00
2018-06-14T11:39:17.935Z,49.00
2018-06-14T11:41:46.346Z,47.90
2018-06-14T11:44:14.777Z,48.10
2018-06-14T11:46:43.406Z,48.60
2018-06-14T11:49:11.834Z,47.70
2018-06-14T11:51:40.265Z,47.60
2018-06-14T11:54:08.893Z,47.70
2018-06-14T11:56:37.330Z,47.10
2018-06-14T11:59:05.786Z,47.30
2018-06-14T12:01:34.404Z,47.20
2018-06-14T12:04:02.847Z,46.50
2018-06-14T12:13:15.726Z,46.70
2018-06-14T12:15:44.386Z,46.40
2018-06-14T12:18:12.826Z,47.40
2018-06-14T12:20:41.351Z,47.40
2018-06-14T12:23:09.818Z,47.50
2018-06-14T12:25:38.346Z,47.70
2018-06-14T12:28:07.078Z,47.80
2018-06-14T12:30:35.642Z,47.70
2018-06-14T12:33:04.189Z,47.60
2018-06-14T12:35:32.798Z,47.30
2018-06-14T12:38:01.305Z,48.00
2018-06-14T12:40:30.714Z,48.10
2018-06-14T12:42:59.372Z,48.40
2018-06-14T12:45:27.926Z,48.70
2018-06-14T12:50:24.474Z,48.00
2018-06-14T12:52:53.063Z,48.10
2018-06-14T12:55:21.753Z,48.10
2018-06-14T12:57:50.434Z,48.00
2018-06-14T13:00:19.127Z,47.50
2018-06-14T13:02:47.650Z,47.50
2018-06-14T13:05:16.179Z,46.90
2018-06-14T13:07:44.601Z,47.10
2018-06-14T13:10:13.273Z,45.70
2018-06-14T13:12:41.895Z,45.80
2018-06-14T13:15:10.310Z,45.80
2018-06-14T13:17:38.850Z,46.40
2018-06-14T13:20:07.420Z,45.80
2018-06-14T13:22:35.954Z,44.80
2018-06-14T13:25:04.454Z,44.80
2018-06-14T13:30:01.288Z,45.90
2018-06-14T13:32:29.746Z,45.70
2018-06-14T13:34:58.442Z,45.50
2018-06-14T13:37:27.097Z,45.80
2018-06-14T13:39:55.519Z,45.80
2018-06-14T13:42:24.083Z,45.70
2018-06-14T13:44:52.499Z,45.20
2018-06-14T13:47:21.082Z,45.30
2018-06-14T13:49:49.678Z,45.00
2018-06-14T13:52:18.194Z,43.90
2018-06-14T13:54:46.597Z,43.80
2018-06-14T13:57:15.058Z,43.80
2018-06-14T14:06:27.454Z,43.90
2018-06-14T14:08:55.858Z,43.80
2018-06-14T14:11:24.283Z,43.50
2018-06-14T14:13:52.925Z,43.50
2018-06-14T14:16:21.449Z,44.40
2018-06-14T14:21:18.233Z,44.20
2018-06-14T14:23:46.673Z,43.80
2018-06-14T14:26:15.053Z,43.70
2018-06-14T14:28:43.475Z,44.20
2018-06-14T14:31:11.926Z,44.70
2018-06-14T14:33:40.354Z,44.40
2018-06-14T14:36:08.822Z,44.70
2018-06-14T14:38:37.218Z,45.70
2018-06-14T14:41:06.383Z,45.40
2018-06-14T14:43:34.858Z,45.10
2018-06-14T14:48:31.452Z,45.20
2018-06-14T14:51:00.143Z,45.00
2018-06-14T14:53:28.651Z,45.20
2018-06-14T14:55:57.087Z,45.20
2018-06-14T14:58:25.570Z,44.70
2018-06-14T15:00:54.094Z,45.20
2018-06-14T15:03:22.530Z,45.40
2018-06-14T15:08:19.249Z,45.30
2018-06-14T15:10:47.689Z,45.40
2018-06-14T15:13:16.251Z,45.30
2018-06-14T15:15:44.698Z,44.90
2018-06-14T15:18:13.127Z,45.30
2018-06-14T15:23:09.709Z,45.30
2018-06-14T15:25:38.276Z,44.90
2018-06-14T15:28:06.790Z,45.20
2018-06-14T15:30:35.246Z,45.40
2018-06-14T15:33:03.680Z,45.10
2018-06-14T15:35:32.255Z,45.30
2018-06-14T15:38:00.743Z,45.00
2018-06-14T15:40:29.274Z,45.20
2018-06-14T15:42:57.786Z,44.50
2018-06-14T15:45:26.223Z,44.30
2018-06-14T15:47:54.669Z,44.10
2018-06-14T15:50:23.290Z,43.20
2018-06-14T15:52:51.940Z,42.80
2018-06-14T15:55:31.655Z,42.70
2018-06-14T15:58:00.052Z,42.80
2018-06-14T16:00:28.482Z,42.20
2018-06-14T16:02:56.934Z,41.20
2018-06-14T16:05:25.338Z,41.40
2018-06-14T16:07:53.738Z,40.60
2018-06-14T16:10:22.201Z,40.30
2018-06-14T16:12:50.638Z,39.90
2018-06-14T16:15:19.348Z,40.20
2018-06-14T16:17:47.830Z,40.10
2018-06-14T16:20:16.243Z,39.50
2018-06-14T16:22:44.661Z,39.00
2018-06-14T16:25:13.121Z,38.60
2018-06-14T16:27:41.526Z,38.40
2018-06-14T16:30:09.947Z,38.80
2018-06-14T16:32:38.401Z,38.70
2018-06-14T16:35:06.903Z,38.20
2018-06-14T16:37:35.438Z,38.30
2018-06-14T16:42:32.030Z,37.50
2018-06-14T16:45:00.481Z,36.80
2018-06-14T16:47:28.958Z,36.90
2018-06-14T16:49:57.536Z,36.90
2018-06-14T16:52:26.828Z,36.00
2018-06-14T16:54:55.696Z,36.50
2018-06-14T16:57:24.198Z,35.40
2018-06-14T16:59:52.620Z,36.00
2018-06-14T17:02:21.108Z,36.90
2018-06-14T17:04:49.544Z,38.10
2018-06-14T17:07:18.119Z,39.90
2018-06-14T17:09:46.914Z,41.00
2018-06-14T17:12:15.358Z,40.60
2018-06-14T17:14:43.914Z,40.10
2018-06-14T17:17:12.369Z,40.40
2018-06-14T17:19:40.908Z,40.00
2018-06-14T17:22:09.423Z,39.60
2018-06-14T17:24:38.106Z,40.60
2018-06-14T17:27:06.542Z,41.80
2018-06-14T17:29:35.070Z,43.10
2018-06-14T17:32:03.558Z,43.90
2018-06-14T17:34:31.978Z,44.90
2018-06-14T17:37:00.670Z,45.80
2018-06-14T17:39:29.755Z,46.90
2018-06-14T17:41:58.325Z,47.50
2018-06-14T17:44:27.022Z,48.20
2018-06-14T17:46:55.942Z,48.50
2018-06-14T17:49:24.486Z,48.80
2018-06-14T17:51:52.979Z,49.10
2018-06-14T17:54:21.487Z,49.30
2018-06-14T17:56:50.023Z,49.40
2018-06-14T17:59:18.402Z,49.80
2018-06-14T18:01:47.030Z,49.50
2018-06-14T18:04:15.571Z,49.90
2018-06-14T18:06:44.024Z,50.00
2018-06-14T18:09:12.498Z,50.20
2018-06-14T18:11:41.106Z,50.00
2018-06-14T18:14:09.538Z,50.50
2018-06-14T18:16:38.054Z,50.80
2018-06-14T18:19:06.552Z,51.10
2018-06-14T18:21:35.189Z,51.20
2018-06-14T18:24:03.678Z,51.50
2018-06-14T18:26:32.106Z,51.90
2018-06-14T18:29:00.511Z,52.30
2018-06-14T18:31:28.990Z,52.60
2018-06-14T18:33:57.414Z,52.80
2018-06-14T18:36:25.854Z,53.00
2018-06-14T18:38:54.446Z,53.20
2018-06-14T18:41:23.002Z,53.40
2018-06-14T18:43:51.536Z,53.60
2018-06-14T18:46:19.982Z,53.90
2018-06-14T18:48:48.426Z,54.00
2018-06-14T18:51:16.886Z,54.30
2018-06-14T18:53:45.371Z,54.30
2018-06-14T18:56:13.978Z,55.00
2018-06-14T18:58:42.471Z,54.80
2018-06-14T19:01:11.038Z,55.00
2018-06-14T19:03:39.507Z,55.10
2018-06-14T19:06:07.976Z,55.20
2018-06-14T19:08:36.759Z,55.40
2018-06-14T19:11:06.675Z,55.40
2018-06-14T19:13:35.132Z,55.60
2018-06-14T19:16:04.296Z,55.90
2018-06-14T19:18:34.584Z,56.00
2018-06-14T19:21:03.199Z,56.10
2018-06-14T19:23:31.835Z,56.30
2018-06-14T19:26:00.316Z,56.10
2018-06-14T19:28:28.846Z,56.30
2018-06-14T19:30:57.343Z,56.60
2018-06-14T19:33:26.592Z,57.00
2018-06-14T19:35:55.058Z,57.30
2018-06-14T19:38:23.597Z,57.50
2018-06-14T19:40:52.075Z,57.80
2018-06-14T19:43:20.538Z,58.40
2018-06-14T19:45:49.886Z,60.10
2018-06-14T19:48:18.357Z,62.20
2018-06-14T19:50:46.903Z,62.80
2018-06-14T19:53:15.435Z,65.20
2018-06-14T19:55:43.894Z,66.50
2018-06-14T20:04:56.384Z,66.80
2018-06-14T20:07:25.024Z,67.80
2018-06-14T20:09:53.459Z,68.30
2018-06-14T20:12:21.954Z,68.30
2018-06-14T20:14:50.366Z,68.50
2018-06-14T20:17:18.982Z,69.70
2018-06-14T20:19:47.473Z,73.10
2018-06-14T20:22:15.901Z,75.40
2018-06-14T20:24:44.409Z,76.70
2018-06-14T20:27:12.894Z,78.90
2018-06-14T20:29:41.454Z,79.10
2018-06-14T20:32:09.910Z,79.50
2018-06-14T20:34:38.444Z,80.00
2018-06-14T20:37:06.934Z,79.40
2018-06-14T20:39:35.490Z,80.00
2018-06-14T20:42:04.319Z,80.40
2018-06-14T20:44:32.742Z,81.00
2018-06-14T20:47:01.401Z,81.10
2018-06-14T20:49:29.886Z,81.20
2018-06-14T20:51:58.382Z,81.30
2018-06-14T20:54:26.939Z,81.40
2018-06-14T20:56:55.511Z,81.30
2018-06-14T20:59:23.970Z,81.50
2018-06-14T21:01:52.603Z,81.30
2018-06-14T21:04:21.222Z,81.10
2018-06-14T21:06:49.694Z,80.90
2018-06-14T21:09:18.206Z,81.00
2018-06-14T21:11:46.734Z,81.20
2018-06-14T21:14:15.195Z,81.00
2018-06-14T21:16:43.678Z,81.00
2018-06-14T21:19:12.182Z,81.10
2018-06-14T21:21:40.667Z,80.90
2018-06-14T21:24:09.146Z,80.60
2018-06-14T21:26:38.343Z,80.50
2018-06-14T21:29:06.798Z,81.30
2018-06-14T21:31:35.360Z,80.90
2018-06-14T21:34:03.850Z,80.90
2018-06-14T21:36:32.426Z,81.00
2018-06-14T21:39:00.929Z,81.00
2018-06-14T21:41:29.581Z,81.00
2018-06-14T21:43:58.053Z,81.00
2018-06-14T21:46:26.521Z,81.00
2018-06-14T21:48:55.114Z,81.00
2018-06-14T21:51:23.590Z,81.00
2018-06-14T21:53:52.093Z,80.50
2018-06-14T21:56:20.613Z,79.30
2018-06-14T21:58:49.072Z,78.70
2018-06-14T22:01:17.534Z,78.20
2018-06-14T22:03:51.187Z,78.20
2018-06-14T22:06:19.658Z,78.30
2018-06-14T22:08:48.099Z,78.40
2018-06-14T22:11:16.575Z,78.60
2018-06-14T22:13:45.078Z,78.50
2018-06-14T22:16:13.532Z,78.00
2018-06-14T22:18:42.148Z,77.70
2018-06-14T22:23:38.787Z,77.60
2018-06-14T22:26:07.304Z,77.80
2018-06-14T22:28:35.827Z,77.80
2018-06-14T22:31:04.270Z,78.00
2018-06-14T22:33:44.054Z,78.20
2018-06-14T22:36:13.007Z,78.60
2018-06-14T22:38:41.486Z,78.90
2018-06-14T22:41:10.064Z,78.80
2018-06-14T22:43:38.519Z,78.90
2018-06-14T22:46:06.990Z,79.30
2018-06-14T22:48:35.545Z,79.40
2018-06-14T22:51:17.081Z,79.60
2018-06-14T22:53:45.958Z,79.50
2018-06-14T22:56:14.566Z,79.50
2018-06-14T22:58:43.150Z,79.60
2018-06-14T23:01:49.330Z,79.90
2018-06-14T23:04:19.865Z,79.80
2018-06-14T23:06:48.359Z,80.40
2018-06-14T23:10:40.198Z,80.90
2018-06-14T23:13:09.897Z,81.30
2018-06-14T23:18:06.563Z,81.50
2018-06-14T23:20:35.957Z,81.80
2018-06-14T23:25:33.770Z,82.10
2018-06-14T23:28:02.284Z,82.10
2018-06-14T23:30:30.782Z,82.30
2018-06-14T23:32:59.327Z,82.50
2018-06-14T23:35:27.787Z,83.10
2018-06-14T23:47:08.567Z,83.60
2018-06-14T23:49:37.027Z,84.80
2018-06-14T23:52:05.757Z,85.70
2018-06-14T23:54:34.225Z,86.40
2018-06-14T23:57:02.712Z,86.70
2018-06-14T23:59:31.162Z,87.30
